Time;durP1;ratioP1;P1;durP2;ratioP2;P2;SDS_P1;SDS_P2;PMS_P1;PMS_P2;Temp;Humidity;BMP_temperature;BMP_pressure;BME280_temperature;BME280_humidity;BME280_pressure;Samples;Min_cycle;Max_cycle;Signal;HPM_P1;HPM_P2
2022/05/20 00:01:25;;;;;;;3.60;3.30;;;;;;;;;;5116397;27;20589;-58
2022/05/20 00:04:12;;;;;;;3.57;3.37;;;;;;;;;;5120125;27;20269;-57
2022/05/20 00:06:59;;;;;;;3.40;3.20;;;;;;;;;;5124388;27;20683;-57
2022/05/20 00:09:46;;;;;;;3.40;3.20;;;;;;;;;;5120961;27;20265;-57
2022/05/20 00:12:34;;;;;;;3.37;3.17;;;;;;;;;;5122330;27;20316;-58
2022/05/20 00:15:25;;;;;;;3.57;3.37;;;;;;;;;;5119229;27;20285;-57
2022/05/20 00:18:12;;;;;;;3.67;3.47;;;;;;;;;;5120661;27;20814;-57
2022/05/20 00:20:59;;;;;;;3.90;3.60;;;;;;;;;;5113103;27;20336;-57
2022/05/20 00:23:46;;;;;;;3.73;3.47;;;;;;;;;;5113970;27;20564;-57
2022/05/20 00:26:33;;;;;;;3.57;3.37;;;;;;;;;;5121275;27;20230;-58
2022/05/20 00:29:21;;;;;;;3.73;3.53;;;;;;;;;;5114502;27;20310;-58
2022/05/20 00:32:08;;;;;;;3.63;3.20;;;;;;;;;;5115701;27;20239;-58
2022/05/20 00:34:55;;;;;;;3.30;3.10;;;;;;;;;;5117269;27;20720;-58
2022/05/20 00:37:43;;;;;;;3.17;2.97;;;;;;;;;;5120202;27;20307;-60
2022/05/20 00:40:31;;;;;;;3.57;3.37;;;;;;;;;;5116057;27;20578;-57
2022/05/20 00:43:28;;;;;;;3.40;3.20;;;;;;;;;;5116872;27;20585;-58
2022/05/20 00:46:18;;;;;;;3.23;2.97;;;;;;;;;;5117848;27;20681;-57
2022/05/20 00:49:08;;;;;;;3.50;3.20;;;;;;;;;;5116824;27;20685;-57
2022/05/20 00:51:55;;;;;;;3.23;3.03;;;;;;;;;;5112660;27;20205;-57
2022/05/20 00:54:46;;;;;;;3.67;3.47;;;;;;;;;;5113354;27;20313;-57
2022/05/20 00:57:38;;;;;;;3.27;3.07;;;;;;;;;;5121608;27;20205;-57
2022/05/20 01:00:26;;;;;;;3.70;3.40;;;;;;;;;;5117033;27;20322;-57
2022/05/20 01:03:17;;;;;;;3.33;3.13;;;;;;;;;;5121969;27;20349;-57
2022/05/20 01:06:04;;;;;;;3.10;3.00;;;;;;;;;;5114839;27;20308;-57
2022/05/20 01:08:51;;;;;;;3.33;3.13;;;;;;;;;;5114880;27;20269;-57
2022/05/20 01:11:40;;;;;;;3.13;2.93;;;;;;;;;;5115859;27;20221;-57
2022/05/20 01:14:27;;;;;;;2.97;2.77;;;;;;;;;;5113588;27;20589;-57
2022/05/20 01:17:14;;;;;;;3.43;3.23;;;;;;;;;;5107705;27;20278;-57
2022/05/20 01:20:08;;;;;;;3.20;3.00;;;;;;;;;;5114817;27;20212;-57
2022/05/20 01:23:07;;;;;;;2.97;2.83;;;;;;;;;;5114340;27;20208;-58
2022/05/20 01:25:58;;;;;;;3.20;3.00;;;;;;;;;;5115679;27;20288;-57
2022/05/20 01:28:45;;;;;;;3.67;3.40;;;;;;;;;;5114099;27;20248;-57
2022/05/20 01:31:32;;;;;;;3.23;3.03;;;;;;;;;;5113817;27;20319;-57
2022/05/20 01:34:20;;;;;;;3.10;2.90;;;;;;;;;;5114954;27;20198;-57
2022/05/20 01:37:07;;;;;;;3.00;2.90;;;;;;;;;;5118280;27;20202;-58
2022/05/20 01:39:55;;;;;;;3.20;3.00;;;;;;;;;;5110351;27;20241;-57
2022/05/20 01:42:50;;;;;;;3.30;3.10;;;;;;;;;;5118458;27;20235;-57
2022/05/20 01:45:46;;;;;;;3.13;2.93;;;;;;;;;;5116034;27;20303;-57
2022/05/20 01:48:38;;;;;;;3.00;2.80;;;;;;;;;;5115082;27;20274;-58
2022/05/20 01:51:30;;;;;;;2.77;2.67;;;;;;;;;;5118648;27;20715;-58
2022/05/20 01:54:24;;;;;;;2.97;2.77;;;;;;;;;;5117289;27;20305;-58
2022/05/20 01:57:21;;;;;;;3.30;3.10;;;;;;;;;;5119626;27;20204;-57
2022/05/20 02:00:11;;;;;;;3.20;3.00;;;;;;;;;;5117801;27;20284;-57
2022/05/20 02:03:04;;;;;;;3.20;3.00;;;;;;;;;;5116621;27;20231;-58
2022/05/20 02:05:55;;;;;;;2.80;2.70;;;;;;;;;;5116490;27;20256;-57
2022/05/20 02:08:46;;;;;;;3.17;2.80;;;;;;;;;;5113576;27;20240;-57
2022/05/20 02:11:37;;;;;;;3.20;3.00;;;;;;;;;;5108589;27;20353;-57
2022/05/20 02:14:29;;;;;;;3.17;2.97;;;;;;;;;;5111130;27;20250;-57
2022/05/20 02:17:24;;;;;;;3.17;2.97;;;;;;;;;;5111139;27;20244;-57
2022/05/20 02:20:16;;;;;;;3.40;3.20;;;;;;;;;;5111956;27;20194;-57
2022/05/20 02:23:06;;;;;;;3.00;2.80;;;;;;;;;;5117331;27;20287;-58
2022/05/20 02:25:56;;;;;;;2.80;2.60;;;;;;;;;;5118189;27;20273;-57
2022/05/20 02:28:46;;;;;;;3.03;2.83;;;;;;;;;;5118503;27;20212;-57
2022/05/20 02:32:00;;;;;;;3.30;3.10;;;;;;;;;;5117531;27;20261;-57
2022/05/20 02:34:47;;;;;;;3.00;2.80;;;;;;;;;;5115452;27;20749;-57
2022/05/20 02:37:37;;;;;;;2.83;2.70;;;;;;;;;;5108297;27;20220;-57
2022/05/20 02:40:24;;;;;;;2.97;2.77;;;;;;;;;;5116635;27;20231;-57
2022/05/20 02:43:11;;;;;;;2.90;2.70;;;;;;;;;;5111435;27;20319;-57
2022/05/20 02:45:58;;;;;;;2.70;2.60;;;;;;;;;;5112458;27;20365;-57
2022/05/20 02:48:47;;;;;;;2.83;2.63;;;;;;;;;;5112118;27;20198;-57
2022/05/20 02:51:34;;;;;;;2.77;2.67;;;;;;;;;;5113021;27;20235;-57
2022/05/20 02:54:21;;;;;;;2.83;2.70;;;;;;;;;;5116432;27;20306;-58
2022/05/20 02:57:08;;;;;;;2.60;2.50;;;;;;;;;;5114419;27;20275;-58
2022/05/20 03:06:05;;;;;;;2.60;2.50;;;;;;;;;;5113568;27;20194;-58
2022/05/20 03:08:53;;;;;;;2.90;2.77;;;;;;;;;;5114112;27;20209;-57
2022/05/20 03:11:40;;;;;;;2.50;2.30;;;;;;;;;;5115103;27;20316;-57
2022/05/20 03:14:27;;;;;;;2.57;2.47;;;;;;;;;;5115444;27;20214;-57
2022/05/20 03:17:14;;;;;;;2.63;2.53;;;;;;;;;;5112326;27;20323;-57
2022/05/20 03:20:01;;;;;;;2.93;2.83;;;;;;;;;;5105672;27;20242;-57
2022/05/20 03:22:50;;;;;;;2.43;2.23;;;;;;;;;;5106542;27;20207;-58
2022/05/20 03:25:37;;;;;;;2.80;2.67;;;;;;;;;;5113254;28;20217;-57
2022/05/20 03:28:24;;;;;;;2.90;2.70;;;;;;;;;;5111998;28;20245;-57
2022/05/20 03:31:12;;;;;;;2.70;2.50;;;;;;;;;;5110401;28;20300;-57
2022/05/20 03:34:05;;;;;;;2.77;2.57;;;;;;;;;;5114054;28;20287;-57
2022/05/20 03:36:51;;;;;;;2.90;2.80;;;;;;;;;;5114559;28;20249;-57
2022/05/20 03:39:40;;;;;;;2.80;2.60;;;;;;;;;;5113687;28;20264;-56
2022/05/20 03:42:27;;;;;;;3.03;2.83;;;;;;;;;;5118969;28;20315;-57
2022/05/20 03:45:14;;;;;;;2.80;2.60;;;;;;;;;;5114984;28;20233;-58
2022/05/20 03:48:01;;;;;;;2.57;2.43;;;;;;;;;;5112191;28;20263;-57
2022/05/20 03:50:48;;;;;;;2.97;2.73;;;;;;;;;;5116430;28;20289;-57
2022/05/20 03:53:35;;;;;;;3.13;2.90;;;;;;;;;;5118548;28;20231;-58
2022/05/20 03:56:24;;;;;;;2.67;2.57;;;;;;;;;;5111656;28;20220;-57
2022/05/20 03:59:11;;;;;;;2.60;2.50;;;;;;;;;;5103459;28;20657;-57
2022/05/20 04:01:58;;;;;;;2.80;2.70;;;;;;;;;;5111630;28;20237;-57
2022/05/20 04:04:47;;;;;;;2.80;2.63;;;;;;;;;;5115957;28;20564;-58
2022/05/20 04:07:34;;;;;;;2.97;2.83;;;;;;;;;;5116088;28;20310;-57
2022/05/20 04:10:22;;;;;;;2.87;2.67;;;;;;;;;;5111959;28;20243;-57
2022/05/20 04:13:11;;;;;;;3.20;3.00;;;;;;;;;;5118768;27;20210;-57
2022/05/20 04:15:58;;;;;;;2.87;2.67;;;;;;;;;;5123938;27;20657;-58
2022/05/20 04:18:45;;;;;;;2.60;2.50;;;;;;;;;;5113664;27;20296;-57
2022/05/20 04:21:32;;;;;;;2.90;2.70;;;;;;;;;;5119687;27;20746;-57
2022/05/20 04:24:20;;;;;;;2.70;2.50;;;;;;;;;;5115569;27;20780;-57
2022/05/20 04:27:07;;;;;;;2.90;2.70;;;;;;;;;;5117611;27;20544;-58
2022/05/20 04:29:56;;;;;;;3.20;3.00;;;;;;;;;;5117182;27;20215;-57
2022/05/20 04:32:43;;;;;;;2.70;2.57;;;;;;;;;;5111576;27;20653;-58
2022/05/20 04:35:30;;;;;;;2.63;2.50;;;;;;;;;;5110573;27;20266;-58
2022/05/20 04:38:16;;;;;;;2.50;2.40;;;;;;;;;;5114866;27;20284;-57
2022/05/20 04:47:18;;;;;;;2.73;2.63;;;;;;;;;;5120993;27;20285;-57
2022/05/20 04:50:07;;;;;;;2.43;2.33;;;;;;;;;;5118650;27;20289;-57
2022/05/20 04:52:54;;;;;;;2.50;2.40;;;;;;;;;;5111119;27;20905;-57
2022/05/20 04:55:40;;;;;;;2.40;2.30;;;;;;;;;;5117428;27;20254;-57
2022/05/20 04:58:27;;;;;;;2.40;2.30;;;;;;;;;;5115414;27;20293;-57
2022/05/20 05:01:15;;;;;;;2.70;2.40;;;;;;;;;;5114455;27;20331;-57
2022/05/20 05:04:03;;;;;;;2.50;2.40;;;;;;;;;;5115625;27;20291;-58
2022/05/20 05:06:50;;;;;;;2.13;2.03;;;;;;;;;;5118743;27;20352;-57
2022/05/20 05:09:37;;;;;;;2.50;2.40;;;;;;;;;;5115534;27;20244;-57
2022/05/20 05:12:24;;;;;;;2.47;2.37;;;;;;;;;;5114563;27;20320;-57
2022/05/20 05:15:13;;;;;;;2.70;2.37;;;;;;;;;;5111731;27;20747;-57
2022/05/20 05:18:13;;;;;;;2.40;2.30;;;;;;;;;;5117419;27;20740;-58
2022/05/20 05:21:02;;;;;;;2.23;2.13;;;;;;;;;;5118093;27;20252;-58
2022/05/20 05:23:48;;;;;;;2.40;2.20;;;;;;;;;;5115568;27;20282;-58
2022/05/20 05:26:36;;;;;;;2.40;2.30;;;;;;;;;;5111226;27;20741;-58
2022/05/20 05:29:23;;;;;;;2.27;2.17;;;;;;;;;;5109864;27;20337;-57
2022/05/20 05:32:10;;;;;;;2.20;2.10;;;;;;;;;;5117012;27;20223;-57
2022/05/20 05:34:57;;;;;;;2.00;1.90;;;;;;;;;;5113940;27;20296;-58
2022/05/20 05:37:45;;;;;;;2.03;1.93;;;;;;;;;;5111016;27;20296;-58
2022/05/20 05:40:33;;;;;;;2.30;2.20;;;;;;;;;;5109953;27;20272;-57
2022/05/20 05:43:20;;;;;;;2.10;2.00;;;;;;;;;;5107434;27;20207;-57
2022/05/20 05:46:07;;;;;;;2.00;1.93;;;;;;;;;;5122966;27;20247;-57
2022/05/20 05:48:54;;;;;;;2.10;2.00;;;;;;;;;;5114307;27;20206;-58
2022/05/20 05:51:41;;;;;;;2.00;1.90;;;;;;;;;;5117532;27;20324;-57
2022/05/20 05:54:30;;;;;;;2.10;2.00;;;;;;;;;;5126254;27;20344;-57
2022/05/20 05:57:17;;;;;;;2.20;2.03;;;;;;;;;;5120262;27;20685;-57
2022/05/20 06:00:05;;;;;;;1.87;1.77;;;;;;;;;;5116154;27;20209;-57
2022/05/20 06:02:53;;;;;;;2.33;2.23;;;;;;;;;;5119079;27;20231;-57
2022/05/20 06:05:41;;;;;;;1.90;1.80;;;;;;;;;;5118939;27;20234;-57
2022/05/20 06:08:28;;;;;;;2.20;2.10;;;;;;;;;;5113260;27;20210;-57
2022/05/20 06:11:16;;;;;;;2.30;2.20;;;;;;;;;;5107834;27;20618;-57
2022/05/20 06:14:03;;;;;;;1.93;1.83;;;;;;;;;;5107222;27;20244;-58
2022/05/20 06:16:50;;;;;;;1.70;1.60;;;;;;;;;;5111266;27;20208;-57
2022/05/20 06:19:37;;;;;;;1.90;1.80;;;;;;;;;;5112474;27;20715;-58
2022/05/20 06:22:24;;;;;;;1.90;1.80;;;;;;;;;;5114916;27;20291;-57
2022/05/20 06:25:12;;;;;;;2.23;2.03;;;;;;;;;;5113679;27;20217;-57
2022/05/20 06:28:10;;;;;;;1.47;1.43;;;;;;;;;;5116343;27;20216;-57
2022/05/20 06:30:57;;;;;;;1.90;1.80;;;;;;;;;;5117117;27;20228;-57
2022/05/20 06:33:44;;;;;;;1.70;1.60;;;;;;;;;;5115286;27;20290;-57
2022/05/20 06:39:51;;;;;;;1.50;1.40;;;;;;;;;;5117214;27;20286;-58
2022/05/20 06:42:38;;;;;;;1.80;1.70;;;;;;;;;;5112048;27;20236;-58
2022/05/20 06:45:26;;;;;;;1.63;1.53;;;;;;;;;;5110032;27;20246;-57
2022/05/20 06:48:13;;;;;;;1.53;1.43;;;;;;;;;;5113601;27;20344;-57
2022/05/20 06:51:00;;;;;;;1.43;1.43;;;;;;;;;;5110890;27;20390;-57
2022/05/20 06:53:47;;;;;;;1.97;1.87;;;;;;;;;;5114928;27;20276;-57
2022/05/20 06:56:34;;;;;;;1.73;1.63;;;;;;;;;;5119425;27;20800;-57
2022/05/20 06:59:23;;;;;;;1.53;1.43;;;;;;;;;;5119724;27;20232;-57
2022/05/20 07:02:12;;;;;;;1.70;1.43;;;;;;;;;;5117745;27;20234;-57
2022/05/20 07:04:59;;;;;;;1.60;1.50;;;;;;;;;;5119360;27;20198;-57
2022/05/20 07:07:46;;;;;;;1.43;1.30;;;;;;;;;;5117322;27;20213;-57
2022/05/20 07:10:33;;;;;;;1.57;1.57;;;;;;;;;;5123359;27;20270;-57
2022/05/20 07:13:20;;;;;;;1.50;1.40;;;;;;;;;;5117628;27;20254;-57
2022/05/20 07:16:08;;;;;;;1.23;1.20;;;;;;;;;;5117616;27;20241;-57
2022/05/20 07:18:56;;;;;;;1.67;1.47;;;;;;;;;;5112578;27;20680;-57
2022/05/20 07:21:43;;;;;;;1.67;1.57;;;;;;;;;;5117361;27;20288;-57
2022/05/20 07:24:30;;;;;;;1.20;1.20;;;;;;;;;;5115601;28;20707;-58
2022/05/20 07:27:17;;;;;;;1.37;1.27;;;;;;;;;;5120260;28;20238;-57
2022/05/20 07:30:08;;;;;;;1.67;1.57;;;;;;;;;;5114803;28;20211;-57
2022/05/20 07:32:55;;;;;;;1.40;1.30;;;;;;;;;;5117204;28;20243;-57
2022/05/20 07:35:43;;;;;;;1.30;1.20;;;;;;;;;;5122898;28;20328;-57
2022/05/20 07:38:30;;;;;;;1.10;1.10;;;;;;;;;;5114661;28;20269;-58
2022/05/20 07:41:19;;;;;;;1.20;1.20;;;;;;;;;;5121331;28;20214;-58
2022/05/20 07:44:07;;;;;;;1.30;1.30;;;;;;;;;;5117719;28;20204;-57
2022/05/20 07:46:54;;;;;;;1.40;1.40;;;;;;;;;;5119998;28;20269;-57
2022/05/20 07:49:40;;;;;;;1.27;1.27;;;;;;;;;;5117272;27;20212;-57
2022/05/20 07:55:36;;;;;;;1.33;1.23;;;;;;;;;;5117670;27;20215;-57
2022/05/20 07:58:27;;;;;;;1.23;1.13;;;;;;;;;;5121317;27;20271;-58
2022/05/20 08:01:16;;;;;;;1.37;1.27;;;;;;;;;;5120874;27;20285;-57
2022/05/20 08:07:11;;;;;;;2.40;1.00;;;;;;;;;;5119928;27;20202;-58
2022/05/20 08:10:00;;;;;;;0.77;0.77;;;;;;;;;;5123672;27;20205;-58
2022/05/20 08:12:47;;;;;;;0.97;0.97;;;;;;;;;;5120747;27;20306;-57
2022/05/20 08:15:36;;;;;;;1.10;1.10;;;;;;;;;;5123259;27;20205;-58
2022/05/20 08:18:22;;;;;;;1.17;1.17;;;;;;;;;;5118697;27;20644;-57
2022/05/20 08:21:09;;;;;;;1.17;1.10;;;;;;;;;;5122832;27;20333;-57
2022/05/20 08:23:56;;;;;;;0.80;0.80;;;;;;;;;;5120496;27;20276;-57
2022/05/20 08:26:45;;;;;;;1.47;1.37;;;;;;;;;;5123464;27;20214;-57
2022/05/20 08:29:33;;;;;;;1.10;1.00;;;;;;;;;;5121116;27;20254;-57
2022/05/20 08:32:20;;;;;;;0.90;0.90;;;;;;;;;;5119922;27;20351;-57
2022/05/20 08:35:08;;;;;;;1.17;1.17;;;;;;;;;;5118781;27;20205;-57
2022/05/20 08:37:55;;;;;;;1.60;1.50;;;;;;;;;;5123910;27;20596;-57
2022/05/20 08:40:45;;;;;;;1.10;1.00;;;;;;;;;;5121824;27;20633;-57
2022/05/20 08:43:34;;;;;;;1.10;1.10;;;;;;;;;;5121056;27;20298;-57
2022/05/20 08:46:23;;;;;;;1.30;1.20;;;;;;;;;;5118142;27;20267;-57
2022/05/20 08:49:13;;;;;;;1.00;1.00;;;;;;;;;;5121615;27;20562;-57
2022/05/20 08:52:00;;;;;;;1.00;1.00;;;;;;;;;;5120050;27;20239;-57
2022/05/20 08:54:47;;;;;;;1.20;1.10;;;;;;;;;;5119898;27;20571;-57
2022/05/20 08:57:34;;;;;;;1.43;1.20;;;;;;;;;;5119077;27;20292;-57
2022/05/20 09:00:23;;;;;;;1.07;1.07;;;;;;;;;;5118391;27;20323;-57
2022/05/20 09:03:12;;;;;;;1.10;1.10;;;;;;;;;;5117619;27;20201;-57
2022/05/20 09:06:05;;;;;;;1.20;1.20;;;;;;;;;;5119961;27;20203;-57
2022/05/20 09:09:05;;;;;;;2.23;1.20;;;;;;;;;;5108866;27;20211;-57
2022/05/20 09:11:56;;;;;;;1.00;1.00;;;;;;;;;;5100347;27;20637;-58
2022/05/20 09:18:02;;;;;;;0.90;0.90;;;;;;;;;;5107071;27;20211;-57
2022/05/20 09:20:51;;;;;;;0.90;0.90;;;;;;;;;;5110187;27;20206;-57
2022/05/20 09:23:51;;;;;;;1.03;1.03;;;;;;;;;;5109103;27;20235;-58
2022/05/20 09:26:40;;;;;;;1.37;1.27;;;;;;;;;;5110493;27;20255;-58
2022/05/20 09:29:31;;;;;;;1.33;1.30;;;;;;;;;;5111889;27;20676;-58
2022/05/20 09:32:25;;;;;;;1.47;1.37;;;;;;;;;;5110010;27;20750;-57
2022/05/20 09:35:21;;;;;;;1.40;1.30;;;;;;;;;;5113901;27;20284;-58
2022/05/20 09:38:11;;;;;;;1.17;1.03;;;;;;;;;;5118956;27;20683;-57
2022/05/20 09:40:58;;;;;;;1.17;1.17;;;;;;;;;;5119105;27;20604;-57
2022/05/20 09:43:56;;;;;;;1.00;1.00;;;;;;;;;;5109610;27;20362;-57
2022/05/20 09:46:51;;;;;;;1.60;1.33;;;;;;;;;;5107672;27;20360;-57
2022/05/20 09:49:42;;;;;;;1.17;1.17;;;;;;;;;;5102163;27;20215;-58
2022/05/20 09:52:40;;;;;;;1.50;1.50;;;;;;;;;;5108008;27;20314;-58
2022/05/20 09:55:31;;;;;;;1.13;1.13;;;;;;;;;;5109823;27;20338;-57
2022/05/20 09:58:20;;;;;;;1.37;1.27;;;;;;;;;;5109853;27;20205;-57
2022/05/20 10:01:11;;;;;;;1.30;1.23;;;;;;;;;;5112156;27;20218;-58
2022/05/20 10:04:02;;;;;;;1.43;1.27;;;;;;;;;;5115154;27;20251;-58
2022/05/20 10:06:54;;;;;;;2.60;1.17;;;;;;;;;;5114041;27;20201;-58
2022/05/20 10:09:51;;;;;;;1.27;1.17;;;;;;;;;;5113227;27;20235;-58
2022/05/20 10:12:41;;;;;;;1.10;1.10;;;;;;;;;;5114114;27;20355;-58
2022/05/20 10:15:33;;;;;;;2.20;1.43;;;;;;;;;;5107557;27;20214;-57
2022/05/20 10:18:29;;;;;;;2.13;1.50;;;;;;;;;;5100043;28;20245;-57
2022/05/20 10:21:28;;;;;;;1.23;1.13;;;;;;;;;;5107595;27;20261;-57
2022/05/20 10:24:42;;;;;;;1.53;1.43;;;;;;;;;;5109532;27;20642;-57
2022/05/20 10:27:36;;;;;;;1.30;1.20;;;;;;;;;;5102070;27;20239;-56
2022/05/20 10:33:34;;;;;;;1.33;1.23;;;;;;;;;;5107504;27;20232;-57
2022/05/20 10:36:29;;;;;;;1.30;1.30;;;;;;;;;;5111960;27;20287;-56
2022/05/20 10:39:27;;;;;;;1.40;1.23;;;;;;;;;;5112235;27;20218;-56
2022/05/20 10:42:40;;;;;;;1.27;1.25;;;;;;;;;;5113442;27;20317;-56
2022/05/20 10:48:58;;;;;;;1.40;1.30;;;;;;;;;;5116733;27;20207;-56
2022/05/20 10:52:09;;;;;;;2.17;1.37;;;;;;;;;;5102833;27;20532;-57
2022/05/20 10:55:14;;;;;;;1.20;1.20;;;;;;;;;;5108567;27;20725;-56
2022/05/20 10:58:24;;;;;;;1.33;1.27;;;;;;;;;;5106223;28;20282;-57
2022/05/20 11:01:20;;;;;;;1.13;1.13;;;;;;;;;;5108798;27;20207;-57
2022/05/20 11:04:24;;;;;;;1.23;1.23;;;;;;;;;;5107111;27;20249;-56
2022/05/20 11:07:34;;;;;;;1.50;1.30;;;;;;;;;;5110538;27;20602;-56
2022/05/20 11:10:38;;;;;;;1.00;1.00;;;;;;;;;;5109478;27;20209;-56
2022/05/20 11:13:41;;;;;;;1.20;1.20;;;;;;;;;;5105941;28;20233;-57
2022/05/20 11:16:49;;;;;;;1.40;1.30;;;;;;;;;;5109129;27;20268;-56
2022/05/20 11:19:58;;;;;;;1.30;1.20;;;;;;;;;;5116039;27;20230;-56
2022/05/20 11:23:09;;;;;;;1.13;1.13;;;;;;;;;;5112877;28;20208;-56
2022/05/20 11:26:30;;;;;;;1.33;1.30;;;;;;;;;;5101735;28;20284;-56
2022/05/20 11:29:47;;;;;;;1.40;1.30;;;;;;;;;;5070261;28;20198;-56
2022/05/20 11:32:53;;;;;;;1.42;1.38;;;;;;;;;;5111391;28;20705;-57
2022/05/20 11:35:50;;;;;;;1.30;1.20;;;;;;;;;;5110791;28;20280;-57
2022/05/20 11:39:01;;;;;;;1.50;1.40;;;;;;;;;;5112154;28;20207;-56
2022/05/20 11:41:54;;;;;;;1.10;1.10;;;;;;;;;;5111275;28;20296;-57
2022/05/20 11:44:52;;;;;;;1.10;1.00;;;;;;;;;;5111518;28;20273;-57
2022/05/20 11:47:56;;;;;;;1.10;1.10;;;;;;;;;;5095482;28;20659;-56
2022/05/20 11:51:18;;;;;;;1.13;1.13;;;;;;;;;;5096462;28;20282;-57
2022/05/20 11:54:12;;;;;;;1.50;1.40;;;;;;;;;;5092449;28;20343;-56
2022/05/20 11:57:05;;;;;;;1.50;1.40;;;;;;;;;;5091354;28;20310;-57
2022/05/20 12:00:00;;;;;;;1.27;1.20;;;;;;;;;;5090563;28;20244;-57
2022/05/20 12:02:49;;;;;;;1.40;1.30;;;;;;;;;;5080264;28;20205;-57
2022/05/20 12:05:39;;;;;;;1.10;1.10;;;;;;;;;;5082975;28;20318;-56
2022/05/20 12:08:49;;;;;;;1.15;1.15;;;;;;;;;;5082931;28;20241;-56
2022/05/20 12:11:41;;;;;;;1.55;1.45;;;;;;;;;;5086992;28;20208;-56
2022/05/20 12:14:27;;;;;;;1.23;1.23;;;;;;;;;;5087646;28;20239;-57
2022/05/20 12:17:30;;;;;;;1.02;1.02;;;;;;;;;;5088610;28;20261;-57
2022/05/20 12:26:56;;;;;;;1.43;1.27;;;;;;;;;;5091109;28;20207;-56
2022/05/20 12:30:02;;;;;;;1.40;1.23;;;;;;;;;;5098054;28;20235;-56
2022/05/20 12:32:51;;;;;;;1.30;1.20;;;;;;;;;;5094519;28;20709;-56
2022/05/20 12:35:38;;;;;;;1.30;1.20;;;;;;;;;;5078542;28;20248;-57
2022/05/20 12:38:25;;;;;;;1.30;1.20;;;;;;;;;;5082032;28;20207;-56
2022/05/20 12:41:31;;;;;;;1.10;1.10;;;;;;;;;;5081564;28;20280;-56
2022/05/20 12:44:31;;;;;;;1.00;1.00;;;;;;;;;;5089637;28;20761;-56
2022/05/20 12:47:28;;;;;;;1.53;1.43;;;;;;;;;;5112103;27;20232;-56
2022/05/20 12:50:25;;;;;;;1.20;1.10;;;;;;;;;;5111983;27;20216;-56
2022/05/20 12:53:14;;;;;;;1.03;1.03;;;;;;;;;;5115549;27;20233;-57
2022/05/20 12:56:02;;;;;;;1.20;1.10;;;;;;;;;;5117439;27;20222;-57
2022/05/20 12:58:49;;;;;;;0.93;0.93;;;;;;;;;;5111414;27;20288;-56
2022/05/20 13:01:36;;;;;;;1.10;0.83;;;;;;;;;;5117108;27;20253;-57
2022/05/20 13:04:24;;;;;;;0.90;0.90;;;;;;;;;;5117941;27;20238;-56
2022/05/20 13:07:17;;;;;;;0.93;0.93;;;;;;;;;;5112550;27;20663;-56
2022/05/20 13:10:24;;;;;;;1.27;1.17;;;;;;;;;;5101862;27;20206;-56
2022/05/20 13:13:14;;;;;;;1.00;1.00;;;;;;;;;;5104689;27;20823;-56
2022/05/20 13:16:03;;;;;;;1.17;1.07;;;;;;;;;;5110547;27;20835;-56
2022/05/20 13:18:59;;;;;;;1.00;1.00;;;;;;;;;;5108821;27;20243;-57
2022/05/20 13:21:51;;;;;;;1.20;1.10;;;;;;;;;;5108774;27;20427;-56
2022/05/20 13:24:40;;;;;;;1.17;1.10;;;;;;;;;;5113738;27;20205;-57
2022/05/20 13:27:28;;;;;;;1.03;0.93;;;;;;;;;;5111763;27;20308;-56
2022/05/20 13:30:19;;;;;;;0.97;0.90;;;;;;;;;;5111301;27;20223;-56
2022/05/20 13:33:09;;;;;;;1.07;1.07;;;;;;;;;;5113661;27;20232;-57
2022/05/20 13:35:56;;;;;;;0.97;0.97;;;;;;;;;;5116681;27;20339;-56
2022/05/20 13:38:46;;;;;;;2.50;0.87;;;;;;;;;;5117957;27;20236;-57
2022/05/20 13:41:35;;;;;;;0.97;0.90;;;;;;;;;;5115770;27;20889;-56
2022/05/20 13:44:22;;;;;;;1.60;0.97;;;;;;;;;;5100189;27;20286;-57
2022/05/20 13:50:15;;;;;;;0.93;0.90;;;;;;;;;;5108666;27;20867;-57
2022/05/20 13:53:03;;;;;;;1.00;1.00;;;;;;;;;;5105178;27;20291;-56
2022/05/20 13:55:51;;;;;;;0.90;0.90;;;;;;;;;;5112447;27;20694;-56
2022/05/20 13:58:42;;;;;;;0.90;0.90;;;;;;;;;;5111065;27;20254;-57
2022/05/20 14:01:31;;;;;;;0.80;0.80;;;;;;;;;;5113665;27;20554;-56
2022/05/20 14:04:19;;;;;;;0.70;0.70;;;;;;;;;;5115784;27;20210;-56
2022/05/20 14:07:09;;;;;;;1.27;1.20;;;;;;;;;;5114647;27;20209;-57
2022/05/20 14:09:57;;;;;;;0.90;0.90;;;;;;;;;;5112691;27;20237;-57
2022/05/20 14:12:48;;;;;;;1.30;1.20;;;;;;;;;;5115998;27;20663;-56
2022/05/20 14:15:46;;;;;;;1.37;1.10;;;;;;;;;;5121798;27;20202;-57
2022/05/20 14:18:35;;;;;;;0.90;0.90;;;;;;;;;;5102809;27;20278;-57
2022/05/20 14:21:30;;;;;;;0.80;0.80;;;;;;;;;;5102810;27;20204;-56
2022/05/20 14:24:21;;;;;;;0.90;0.90;;;;;;;;;;5107845;27;20342;-57
2022/05/20 14:27:29;;;;;;;1.10;1.00;;;;;;;;;;5106968;27;20685;-57
2022/05/20 14:30:23;;;;;;;1.57;1.10;;;;;;;;;;5110947;27;20204;-57
2022/05/20 14:33:17;;;;;;;1.07;1.07;;;;;;;;;;5111308;27;20229;-57
2022/05/20 14:36:11;;;;;;;1.17;0.90;;;;;;;;;;5112486;27;20215;-57
2022/05/20 14:39:00;;;;;;;1.60;1.17;;;;;;;;;;5116168;27;20338;-56
2022/05/20 14:41:56;;;;;;;1.10;1.10;;;;;;;;;;5114623;27;20206;-62
2022/05/20 14:44:48;;;;;;;1.43;0.80;;;;;;;;;;5113214;27;20208;-56
2022/05/20 14:47:39;;;;;;;0.90;0.90;;;;;;;;;;5093231;28;20426;-56
2022/05/20 14:50:28;;;;;;;1.20;1.10;;;;;;;;;;5093120;28;20862;-57
2022/05/20 14:53:23;;;;;;;0.80;0.80;;;;;;;;;;5086386;28;20731;-56
2022/05/20 14:56:38;;;;;;;0.93;0.90;;;;;;;;;;5077154;28;20281;-56
2022/05/20 14:59:31;;;;;;;0.70;0.70;;;;;;;;;;5082903;28;20214;-56
2022/05/20 15:02:18;;;;;;;0.67;0.67;;;;;;;;;;5082167;28;20233;-56
2022/05/20 15:05:06;;;;;;;1.10;1.00;;;;;;;;;;5086966;28;20203;-56
2022/05/20 15:08:00;;;;;;;1.37;1.03;;;;;;;;;;5084359;28;20221;-56
2022/05/20 15:10:54;;;;;;;0.80;0.80;;;;;;;;;;5093023;28;20209;-56
2022/05/20 15:13:41;;;;;;;0.83;0.83;;;;;;;;;;5092638;28;20224;-57
2022/05/20 15:16:28;;;;;;;1.07;0.97;;;;;;;;;;5092300;28;20249;-56
2022/05/20 15:19:15;;;;;;;1.00;0.80;;;;;;;;;;5095784;28;20206;-56
2022/05/20 15:22:02;;;;;;;1.27;1.13;;;;;;;;;;5095375;28;20684;-56
2022/05/20 15:24:50;;;;;;;0.90;0.90;;;;;;;;;;5093526;28;20205;-56
2022/05/20 15:27:38;;;;;;;0.77;0.77;;;;;;;;;;5082151;28;20678;-56
2022/05/20 15:30:25;;;;;;;0.90;0.90;;;;;;;;;;5080533;28;20210;-57
2022/05/20 15:36:16;;;;;;;0.70;0.70;;;;;;;;;;5088083;28;20241;-56
2022/05/20 15:39:05;;;;;;;1.00;0.90;;;;;;;;;;5086627;28;20685;-56
2022/05/20 15:41:54;;;;;;;0.77;0.77;;;;;;;;;;5090154;28;20244;-57
2022/05/20 15:44:42;;;;;;;1.80;0.93;;;;;;;;;;5090086;28;20213;-57
2022/05/20 15:47:29;;;;;;;2.10;0.80;;;;;;;;;;5111068;28;20744;-56
2022/05/20 15:50:16;;;;;;;1.17;0.97;;;;;;;;;;5114975;28;20566;-57
2022/05/20 15:53:06;;;;;;;0.83;0.73;;;;;;;;;;5109876;28;20787;-56
2022/05/20 15:55:55;;;;;;;0.77;0.70;;;;;;;;;;5114613;28;20202;-56
2022/05/20 15:58:48;;;;;;;0.60;0.60;;;;;;;;;;5106503;28;20252;-57
2022/05/20 16:01:37;;;;;;;0.87;0.67;;;;;;;;;;5103429;28;20295;-56
2022/05/20 16:04:24;;;;;;;1.03;1.00;;;;;;;;;;5097184;28;20204;-56
2022/05/20 16:07:12;;;;;;;1.13;0.80;;;;;;;;;;5103471;28;20252;-56
2022/05/20 16:09:59;;;;;;;0.70;0.70;;;;;;;;;;5103037;27;20225;-56
2022/05/20 16:12:46;;;;;;;1.27;0.63;;;;;;;;;;5110285;27;20234;-56
2022/05/20 16:15:35;;;;;;;3.17;1.00;;;;;;;;;;5112416;27;20331;-56
2022/05/20 16:18:22;;;;;;;1.60;1.07;;;;;;;;;;5105111;27;20786;-56
2022/05/20 16:21:10;;;;;;;0.93;0.83;;;;;;;;;;5116076;27;20687;-56
2022/05/20 16:24:01;;;;;;;0.77;0.77;;;;;;;;;;5117187;27;20553;-56
2022/05/20 16:26:48;;;;;;;0.97;0.77;;;;;;;;;;5115614;27;20210;-56
2022/05/20 16:29:35;;;;;;;0.90;0.60;;;;;;;;;;5119725;27;20223;-56
2022/05/20 16:32:23;;;;;;;1.13;1.03;;;;;;;;;;5115540;27;20206;-57
2022/05/20 16:35:10;;;;;;;1.20;0.90;;;;;;;;;;5099372;27;20285;-56
2022/05/20 16:37:58;;;;;;;0.90;0.73;;;;;;;;;;5107567;27;20344;-56
2022/05/20 16:40:45;;;;;;;1.07;0.80;;;;;;;;;;5101914;27;20222;-56
2022/05/20 16:43:32;;;;;;;0.60;0.60;;;;;;;;;;5105483;27;20341;-56
2022/05/20 16:46:23;;;;;;;0.90;0.90;;;;;;;;;;5106959;27;20273;-56
2022/05/20 16:49:15;;;;;;;0.70;0.70;;;;;;;;;;5111830;27;20204;-56
2022/05/20 16:52:05;;;;;;;0.80;0.77;;;;;;;;;;5116833;27;20251;-56
2022/05/20 16:54:52;;;;;;;0.77;0.77;;;;;;;;;;5112995;27;20728;-56
2022/05/20 17:03:48;;;;;;;0.60;0.60;;;;;;;;;;5117457;27;20241;-56
2022/05/20 17:06:36;;;;;;;1.13;0.80;;;;;;;;;;5121718;27;20609;-56
2022/05/20 17:09:23;;;;;;;0.80;0.63;;;;;;;;;;5102036;27;20331;-56
2022/05/20 17:12:11;;;;;;;0.63;0.63;;;;;;;;;;5102902;27;20285;-57
2022/05/20 17:14:58;;;;;;;0.70;0.70;;;;;;;;;;5103901;27;20339;-56
2022/05/20 17:17:45;;;;;;;1.33;0.90;;;;;;;;;;5108315;27;20661;-57
2022/05/20 17:20:32;;;;;;;0.80;0.80;;;;;;;;;;5107156;27;20768;-56
2022/05/20 17:26:30;;;;;;;1.13;0.93;;;;;;;;;;5051984;28;20681;-57
2022/05/20 17:29:17;;;;;;;1.20;1.03;;;;;;;;;;5113155;27;20208;-56
2022/05/20 17:32:06;;;;;;;0.40;0.40;;;;;;;;;;5116269;27;20285;-57
2022/05/20 17:34:53;;;;;;;2.00;0.80;;;;;;;;;;5115674;27;20312;-56
2022/05/20 17:37:40;;;;;;;0.77;0.77;;;;;;;;;;5120671;27;20690;-56
2022/05/20 17:40:28;;;;;;;0.80;0.70;;;;;;;;;;5117591;27;20217;-58
2022/05/20 17:43:16;;;;;;;0.80;0.80;;;;;;;;;;5102118;27;20206;-57
2022/05/20 17:46:03;;;;;;;0.70;0.70;;;;;;;;;;5102158;27;20242;-56
2022/05/20 17:48:50;;;;;;;0.70;0.70;;;;;;;;;;5098681;27;20226;-57
2022/05/20 17:51:37;;;;;;;0.77;0.63;;;;;;;;;;5104106;27;20280;-56
2022/05/20 17:54:25;;;;;;;0.57;0.57;;;;;;;;;;5106953;27;20232;-56
2022/05/20 17:57:14;;;;;;;1.40;0.80;;;;;;;;;;5106415;27;20724;-57